createdAt,value
2017-05-19T00:00:24.098Z,1009.9
2017-05-19T00:01:26.945Z,1010.1
2017-05-19T00:02:30.160Z,1010.1
2017-05-19T00:03:33.309Z,1009.9
2017-05-19T00:04:35.656Z,1009.9
2017-05-19T00:05:38.503Z,1009.9
2017-05-19T00:06:41.347Z,1009.9
2017-05-19T00:07:44.196Z,1009.9
2017-05-19T00:08:47.800Z,1009.9
2017-05-19T00:09:50.144Z,1009.9
2017-05-19T00:10:52.987Z,1010.1
2017-05-19T00:11:55.877Z,1010.1
2017-05-19T00:12:58.727Z,1010.1
2017-05-19T00:14:01.829Z,1010.1
2017-05-19T00:15:04.538Z,1010.1
2017-05-19T00:16:07.304Z,1010.2
2017-05-19T00:17:10.665Z,1010.2
2017-05-19T00:18:13.511Z,1010.3
2017-05-19T00:19:16.477Z,1010.3
2017-05-19T00:20:19.323Z,1010.3
2017-05-19T00:21:22.033Z,1010.3
2017-05-19T00:22:24.881Z,1010.3
2017-05-19T00:23:27.593Z,1010.3
2017-05-19T00:24:31.112Z,1010.3
2017-05-19T00:25:33.451Z,1010.3
2017-05-19T00:26:36.665Z,1010.3
2017-05-19T00:27:39.523Z,1010.4
2017-05-19T00:28:42.368Z,1010.4
2017-05-19T00:29:45.387Z,1010.4
2017-05-19T00:30:47.964Z,1010.5
2017-05-19T00:31:50.815Z,1010.5
2017-05-19T00:32:53.663Z,1010.5
2017-05-19T00:33:56.518Z,1010.6
2017-05-19T00:34:59.672Z,1010.6
2017-05-19T00:36:02.519Z,1010.6
2017-05-19T00:37:05.297Z,1010.6
2017-05-19T00:38:08.012Z,1010.6
2017-05-19T00:39:11.226Z,1010.6
2017-05-19T00:41:17.296Z,1010.6
2017-05-19T00:42:19.506Z,1010.6
2017-05-19T00:43:22.780Z,1010.6
2017-05-19T00:44:25.628Z,1010.6
2017-05-19T00:45:28.476Z,1010.6
2017-05-19T00:46:31.443Z,1010.6
2017-05-19T00:47:34.288Z,1010.6
2017-05-19T00:49:40.049Z,1010.6
2017-05-19T00:50:42.890Z,1010.6
2017-05-19T00:51:45.852Z,1010.5
2017-05-19T00:52:48.602Z,1010.5
2017-05-19T00:53:51.452Z,1010.5
2017-05-19T00:54:54.296Z,1010.5
2017-05-19T00:55:57.153Z,1010.6
2017-05-19T00:57:00.305Z,1010.5
2017-05-19T00:58:03.148Z,1010.6
2017-05-19T00:59:05.859Z,1010.6
2017-05-19T01:00:08.573Z,1010.6
2017-05-19T01:01:11.479Z,1010.6
2017-05-19T01:02:14.483Z,1010.6
2017-05-19T01:03:17.192Z,1010.6
2017-05-19T01:04:20.413Z,1010.6
2017-05-19T01:05:23.262Z,1010.6
2017-05-19T01:06:26.105Z,1010.6
2017-05-19T01:07:29.205Z,1010.6
2017-05-19T01:08:31.921Z,1010.6
2017-05-19T01:10:37.687Z,1010.6
2017-05-19T01:11:40.533Z,1010.6
2017-05-19T01:12:43.629Z,1010.7
2017-05-19T01:13:45.984Z,1010.7
2017-05-19T01:14:48.830Z,1010.8
2017-05-19T01:15:51.717Z,1010.8
2017-05-19T01:16:54.562Z,1010.7
2017-05-19T01:17:57.661Z,1010.7
2017-05-19T01:20:03.418Z,1010.6
2017-05-19T01:21:06.133Z,1010.6
2017-05-19T01:22:08.904Z,1010.7
2017-05-19T01:23:12.240Z,1010.7
2017-05-19T01:24:15.095Z,1010.7
2017-05-19T01:25:17.943Z,1010.7
2017-05-19T01:26:20.447Z,1010.7
2017-05-19T01:27:23.660Z,1010.7
2017-05-19T01:28:26.623Z,1010.7
2017-05-19T01:29:29.472Z,1010.8
2017-05-19T01:30:32.183Z,1010.8
2017-05-19T01:31:35.026Z,1010.8
2017-05-19T01:32:37.873Z,1010.8
2017-05-19T01:33:40.972Z,1010.8
2017-05-19T01:34:43.818Z,1010.8
2017-05-19T01:35:46.527Z,1010.8
2017-05-19T01:36:49.371Z,1010.8
2017-05-19T01:37:52.216Z,1010.8
2017-05-19T01:39:58.222Z,1010.8
2017-05-19T01:41:01.068Z,1010.8
2017-05-19T01:43:06.834Z,1010.8
2017-05-19T01:44:09.681Z,1010.8
2017-05-19T01:45:12.694Z,1010.9
2017-05-19T01:46:15.308Z,1010.9
2017-05-19T01:47:18.157Z,1011
2017-05-19T01:48:20.998Z,1011
2017-05-19T01:49:23.841Z,1011.1
2017-05-19T01:50:27.180Z,1011.2
2017-05-19T01:51:29.885Z,1011.3
2017-05-19T01:52:32.594Z,1011.3
2017-05-19T01:53:35.446Z,1011.3
2017-05-19T01:54:38.353Z,1011.2
2017-05-19T01:55:41.448Z,1011.1
2017-05-19T01:56:43.789Z,1011
2017-05-19T01:57:47.136Z,1011.1
2017-05-19T01:58:49.980Z,1011
2017-05-19T01:59:52.828Z,1011
2017-05-19T02:00:55.977Z,1011
2017-05-19T02:01:58.318Z,1010.9
2017-05-19T02:03:01.220Z,1010.9
2017-05-19T02:05:06.975Z,1010.9
2017-05-19T02:06:10.073Z,1011
2017-05-19T02:07:12.779Z,1010.9
2017-05-19T02:08:15.622Z,1010.9
2017-05-19T02:09:18.468Z,1010.9
2017-05-19T02:10:21.312Z,1010.9
2017-05-19T02:11:24.280Z,1010.8
2017-05-19T02:12:27.124Z,1010.8
2017-05-19T02:13:30.032Z,1010.8
2017-05-19T02:14:32.880Z,1010.8
2017-05-19T02:15:35.727Z,1010.7
2017-05-19T02:16:38.826Z,1010.8
2017-05-19T02:17:41.671Z,1010.7
2017-05-19T02:18:44.517Z,1010.8
2017-05-19T02:19:47.370Z,1010.8
2017-05-19T02:20:50.218Z,1010.8
2017-05-19T02:21:53.315Z,1010.8
2017-05-19T02:22:55.661Z,1010.8
2017-05-19T02:23:58.513Z,1010.7
2017-05-19T02:25:01.412Z,1010.7
2017-05-19T02:26:04.259Z,1010.7
2017-05-19T02:27:07.399Z,1010.6
2017-05-19T02:28:09.974Z,1010.7
2017-05-19T02:29:13.055Z,1010.7
2017-05-19T02:30:15.761Z,1010.7
2017-05-19T02:31:18.982Z,1010.7
2017-05-19T02:32:22.081Z,1010.7
2017-05-19T02:33:24.424Z,1010.7
2017-05-19T02:34:27.199Z,1010.7
2017-05-19T02:35:30.047Z,1010.7
2017-05-19T02:36:32.897Z,1010.7
2017-05-19T02:37:36.552Z,1010.6
2017-05-19T02:38:38.889Z,1010.6
2017-05-19T02:39:41.604Z,1010.5
2017-05-19T02:40:44.456Z,1010.5
2017-05-19T02:41:47.298Z,1010.5
2017-05-19T02:42:50.403Z,1010.5
2017-05-19T02:43:53.251Z,1010.5
2017-05-19T02:44:56.098Z,1010.4
2017-05-19T02:45:58.867Z,1010.4
2017-05-19T02:47:01.717Z,1010.4
2017-05-19T02:48:04.817Z,1010.4
2017-05-19T02:49:07.660Z,1010.4
2017-05-19T02:50:10.303Z,1010.3
2017-05-19T02:51:13.015Z,1010.3
2017-05-19T02:52:15.961Z,1010.3
2017-05-19T02:53:19.054Z,1010.2
2017-05-19T02:54:21.767Z,1010.2
2017-05-19T02:55:24.619Z,1010.2
2017-05-19T02:56:27.743Z,1010.2
2017-05-19T02:57:30.454Z,1010.2
2017-05-19T02:58:33.415Z,1010.2
2017-05-19T02:59:36.258Z,1010.1
2017-05-19T03:00:39.104Z,1010.1
2017-05-19T03:01:42.013Z,1010.1
2017-05-19T03:02:44.859Z,1010.1
2017-05-19T03:03:48.009Z,1010.1
2017-05-19T03:04:50.219Z,1009.9
2017-05-19T03:05:53.062Z,1009.9
2017-05-19T03:07:58.886Z,1009.9
2017-05-19T03:09:02.043Z,1009.9
2017-05-19T03:10:04.946Z,1009.9
2017-05-19T03:12:10.205Z,1009.8
2017-05-19T03:13:13.426Z,1009.9
2017-05-19T03:14:16.311Z,1009.8
2017-05-19T03:15:19.205Z,1009.9
2017-05-19T03:16:21.921Z,1009.9
2017-05-19T03:17:24.767Z,1009.8
2017-05-19T03:18:27.480Z,1009.8
2017-05-19T03:19:30.443Z,1009.8
2017-05-19T03:20:33.289Z,1009.8
2017-05-19T03:21:36.000Z,1009.8
2017-05-19T03:22:38.855Z,1009.8
2017-05-19T03:23:41.702Z,1009.8
2017-05-19T03:24:44.807Z,1009.8
2017-05-19T03:25:47.653Z,1009.8
2017-05-19T03:26:50.497Z,1009.7
2017-05-19T03:27:53.345Z,1009.7
2017-05-19T03:28:56.191Z,1009.7
2017-05-19T03:29:59.287Z,1009.7
2017-05-19T03:31:01.627Z,1009.8
2017-05-19T03:32:04.477Z,1009.8
2017-05-19T03:33:07.757Z,1009.7
2017-05-19T03:34:10.345Z,1009.7
2017-05-19T03:35:13.311Z,1009.7
2017-05-19T03:37:19.173Z,1009.7
2017-05-19T03:38:21.882Z,1009.7
2017-05-19T03:39:24.726Z,1009.6
2017-05-19T03:40:27.830Z,1009.6
2017-05-19T03:41:30.542Z,1009.6
2017-05-19T03:42:33.388Z,1009.6
2017-05-19T03:43:36.237Z,1009.6
2017-05-19T03:44:39.087Z,1009.6
2017-05-19T03:45:42.183Z,1009.7
2017-05-19T03:46:44.532Z,1009.7
2017-05-19T03:47:47.375Z,1009.6
2017-05-19T03:48:50.218Z,1009.7
2017-05-19T03:49:53.064Z,1009.7
2017-05-19T03:50:56.211Z,1009.6
2017-05-19T03:51:59.057Z,1009.6
2017-05-19T03:53:01.905Z,1009.7
2017-05-19T03:54:04.752Z,1009.7
2017-05-19T03:55:07.599Z,1009.7
2017-05-19T03:56:10.419Z,1009.7
2017-05-19T03:57:13.131Z,1009.8
2017-05-19T03:58:15.975Z,1009.8
2017-05-19T03:59:18.818Z,1009.8
2017-05-19T04:00:21.661Z,1009.8
2017-05-19T04:01:24.757Z,1009.8
2017-05-19T04:02:27.605Z,1009.8
2017-05-19T04:03:30.311Z,1009.9
2017-05-19T04:04:33.022Z,1009.9
2017-05-19T04:05:35.868Z,1009.9
2017-05-19T04:06:39.467Z,1009.9
2017-05-19T04:07:41.809Z,1010.1
2017-05-19T04:08:44.656Z,1010.1
2017-05-19T04:09:47.506Z,1010.1
2017-05-19T04:10:50.351Z,1010.1
2017-05-19T04:11:53.552Z,1010.1
2017-05-19T04:12:56.400Z,1010.1
2017-05-19T04:13:59.248Z,1010.2
2017-05-19T04:15:02.101Z,1010.2
2017-05-19T04:16:04.824Z,1010.2
2017-05-19T04:17:07.922Z,1010.2
2017-05-19T04:19:13.277Z,1010.2
2017-05-19T04:20:16.495Z,1010.2
2017-05-19T04:21:19.340Z,1010.2
2017-05-19T04:22:22.491Z,1010.2
2017-05-19T04:23:24.838Z,1010.2
2017-05-19T04:24:27.685Z,1010.2
2017-05-19T04:25:30.908Z,1010.2
2017-05-19T04:26:33.754Z,1010.2
2017-05-19T04:27:36.849Z,1010.1
2017-05-19T04:28:39.196Z,1010.1
2017-05-19T04:29:42.051Z,1010.1
2017-05-19T04:30:44.896Z,1010.1
2017-05-19T04:31:48.106Z,1010.1
2017-05-19T04:32:51.363Z,1010.1
2017-05-19T04:33:53.706Z,1010.1
2017-05-19T04:34:56.556Z,1010.1
2017-05-19T04:35:59.403Z,1010.1
2017-05-19T04:37:02.251Z,1010.1
2017-05-19T04:38:05.349Z,1010.1
2017-05-19T04:39:08.191Z,1010.1
2017-05-19T04:40:10.904Z,1010.1
2017-05-19T04:41:14.171Z,1010.2
2017-05-19T04:42:16.754Z,1010.1
2017-05-19T04:43:19.899Z,1010.1
2017-05-19T04:44:22.747Z,1010.1
2017-05-19T04:45:25.597Z,1010.1
2017-05-19T04:46:28.444Z,1010.1
2017-05-19T04:47:31.290Z,1010.1
2017-05-19T04:48:34.815Z,1010.1
2017-05-19T04:49:37.156Z,1010.1
2017-05-19T04:50:39.911Z,1010.1
2017-05-19T04:51:43.258Z,1010.1
2017-05-19T04:53:49.263Z,1010.1
2017-05-19T04:54:51.613Z,1010.1
2017-05-19T04:55:54.513Z,1010.1
2017-05-19T04:56:57.427Z,1010.2
2017-05-19T04:58:00.775Z,1010.2
2017-05-19T04:59:03.879Z,1010.2
2017-05-19T05:00:06.224Z,1010.1
2017-05-19T05:03:15.266Z,1010.2
2017-05-19T05:04:18.416Z,1010.2
2017-05-19T05:05:21.267Z,1010.2
2017-05-19T05:06:23.972Z,1010.2
2017-05-19T05:07:27.051Z,1010.2
2017-05-19T05:08:29.962Z,1010.2
2017-05-19T05:09:32.934Z,1010.2
2017-05-19T05:10:35.781Z,1010.1
2017-05-19T05:11:38.622Z,1010.1
2017-05-19T05:12:41.466Z,1010.1
2017-05-19T05:13:44.316Z,1010.1
2017-05-19T05:14:47.527Z,1010.1
2017-05-19T05:15:50.372Z,1010.1
2017-05-19T05:16:53.219Z,1010.1
2017-05-19T05:17:56.066Z,1010.1
2017-05-19T05:18:59.281Z,1010.1
2017-05-19T05:20:02.377Z,1010.1
2017-05-19T05:21:05.226Z,1010.1
2017-05-19T05:22:08.087Z,1009.9
2017-05-19T05:23:11.168Z,1010.1
2017-05-19T05:24:14.019Z,1009.9
2017-05-19T05:25:16.988Z,1010.1
2017-05-19T05:26:19.832Z,1010.1
2017-05-19T05:27:22.676Z,1009.9
2017-05-19T05:28:25.405Z,1009.9
2017-05-19T05:29:28.753Z,1010.1
2017-05-19T05:30:31.724Z,1010.1
2017-05-19T05:31:34.568Z,1009.9
2017-05-19T05:32:37.415Z,1009.9
2017-05-19T05:33:40.255Z,1009.9
2017-05-19T05:34:43.108Z,1010.1
2017-05-19T05:35:46.714Z,1010.1
2017-05-19T05:36:49.060Z,1010.1
2017-05-19T05:37:52.278Z,1009.9
2017-05-19T05:38:54.992Z,1010.1
2017-05-19T05:39:57.841Z,1009.9
2017-05-19T05:41:01.448Z,1010.1
2017-05-19T05:42:04.163Z,1010.1
2017-05-19T05:43:07.008Z,1010.1
2017-05-19T05:44:09.860Z,1009.9
2017-05-19T05:45:12.945Z,1010.1
2017-05-19T05:46:16.041Z,1010.1
2017-05-19T05:47:18.617Z,1009.9
2017-05-19T05:48:21.461Z,1010.1
2017-05-19T05:49:24.676Z,1010.1
2017-05-19T05:50:27.395Z,1010.1
2017-05-19T05:51:31.047Z,1009.9
2017-05-19T05:52:33.764Z,1010.1
2017-05-19T05:53:36.612Z,1009.9
2017-05-19T05:54:39.461Z,1009.9
2017-05-19T05:55:42.312Z,1010.1
2017-05-19T05:56:45.460Z,1009.9
2017-05-19T05:57:48.174Z,1009.9
2017-05-19T05:58:51.025Z,1009.9
2017-05-19T05:59:54.372Z,1009.9
2017-05-19T06:00:57.228Z,1009.8
2017-05-19T06:02:00.617Z,1009.9
2017-05-19T06:03:03.016Z,1009.9
2017-05-19T06:04:05.865Z,1009.9
2017-05-19T06:05:09.281Z,1009.9
2017-05-19T06:06:12.129Z,1009.9
2017-05-19T06:07:15.142Z,1009.9
2017-05-19T06:08:17.985Z,1009.8
2017-05-19T06:09:20.837Z,1009.8
2017-05-19T06:10:23.915Z,1009.9
2017-05-19T06:11:26.623Z,1009.8
2017-05-19T06:12:30.089Z,1009.8
2017-05-19T06:13:32.934Z,1009.8
2017-05-19T06:14:35.778Z,1009.8
2017-05-19T06:15:38.623Z,1009.9
2017-05-19T06:16:41.475Z,1009.8
2017-05-19T06:17:45.120Z,1009.9
2017-05-19T06:18:47.464Z,1009.8
2017-05-19T06:19:50.816Z,1009.9
2017-05-19T06:20:53.664Z,1009.8
2017-05-19T06:21:56.507Z,1009.9
2017-05-19T06:22:59.603Z,1009.8
2017-05-19T06:24:02.449Z,1009.8
2017-05-19T06:25:05.297Z,1009.8
2017-05-19T06:26:08.649Z,1009.7
2017-05-19T06:27:11.360Z,1009.9
2017-05-19T06:28:14.669Z,1009.8
2017-05-19T06:29:17.390Z,1009.8
2017-05-19T06:30:20.245Z,1009.8
2017-05-19T06:31:23.595Z,1009.9
2017-05-19T06:32:26.305Z,1009.8
2017-05-19T06:33:29.405Z,1009.8
2017-05-19T06:34:32.249Z,1009.8
2017-05-19T06:35:35.142Z,1009.9
2017-05-19T06:36:38.488Z,1009.9
2017-05-19T06:37:41.330Z,1009.8
2017-05-19T06:38:44.429Z,1009.8
2017-05-19T06:39:47.284Z,1009.8
2017-05-19T06:40:50.132Z,1009.8
2017-05-19T06:41:52.980Z,1009.8
2017-05-19T06:42:55.889Z,1009.8
2017-05-19T06:43:59.491Z,1009.8
2017-05-19T06:45:01.846Z,1009.8
2017-05-19T06:46:05.205Z,1009.8
2017-05-19T06:47:07.924Z,1009.8
2017-05-19T06:48:11.134Z,1009.8
2017-05-19T06:49:14.472Z,1009.8
2017-05-19T06:50:17.190Z,1009.8
2017-05-19T06:51:20.146Z,1009.8
2017-05-19T06:52:22.999Z,1009.8
2017-05-19T06:53:25.846Z,1009.8
2017-05-19T06:54:29.308Z,1009.8
2017-05-19T06:55:31.888Z,1009.9
2017-05-19T06:56:34.833Z,1009.8
2017-05-19T06:57:38.180Z,1009.9
2017-05-19T06:58:40.751Z,1009.9
2017-05-19T06:59:44.276Z,1009.9
2017-05-19T07:00:47.132Z,1009.9
2017-05-19T07:01:49.978Z,1009.8
2017-05-19T07:02:52.731Z,1009.9
2017-05-19T07:03:56.137Z,1009.9
2017-05-19T07:04:59.099Z,1009.8
2017-05-19T07:06:01.817Z,1009.9
2017-05-19T07:08:07.955Z,1009.8
2017-05-19T07:09:11.038Z,1009.7
2017-05-19T07:10:14.052Z,1009.8
2017-05-19T07:11:17.138Z,1009.8
2017-05-19T07:12:19.852Z,1009.8
2017-05-19T07:13:22.931Z,1009.7
2017-05-19T07:14:25.830Z,1009.7
2017-05-19T07:15:29.159Z,1009.8
2017-05-19T07:16:31.864Z,1009.7
2017-05-19T07:17:35.012Z,1009.7
2017-05-19T07:18:37.864Z,1009.7
2017-05-19T07:19:41.216Z,1009.7
2017-05-19T07:20:44.323Z,1009.7
2017-05-19T07:21:47.169Z,1009.7
2017-05-19T07:22:50.032Z,1009.7
2017-05-19T07:23:52.888Z,1009.6
2017-05-19T07:24:56.242Z,1009.7
2017-05-19T07:25:59.204Z,1009.7
2017-05-19T07:27:02.049Z,1009.7
2017-05-19T07:28:05.273Z,1009.7
2017-05-19T07:29:07.869Z,1009.7
2017-05-19T07:30:11.216Z,1009.6
2017-05-19T07:31:14.183Z,1009.7
2017-05-19T07:32:17.267Z,1009.7
2017-05-19T07:33:19.982Z,1009.7
2017-05-19T07:34:23.335Z,1009.7
2017-05-19T07:35:26.088Z,1009.7
2017-05-19T07:36:29.554Z,1009.7
2017-05-19T07:37:32.132Z,1009.8
2017-05-19T07:38:34.983Z,1009.8
2017-05-19T07:39:38.339Z,1009.8
2017-05-19T07:40:41.186Z,1009.8
2017-05-19T07:42:47.198Z,1009.8
2017-05-19T07:43:49.955Z,1009.9
2017-05-19T07:44:53.034Z,1009.9
2017-05-19T07:45:56.456Z,1009.9
2017-05-19T07:46:59.301Z,1009.9
2017-05-19T07:48:02.263Z,1009.9
2017-05-19T07:49:05.107Z,1009.9
2017-05-19T07:50:08.324Z,1009.9
2017-05-19T07:51:11.037Z,1009.9
2017-05-19T07:52:14.248Z,1009.8
2017-05-19T07:53:17.771Z,1009.8
2017-05-19T07:54:20.183Z,1009.8
2017-05-19T07:55:23.533Z,1009.7
2017-05-19T07:56:26.382Z,1009.7
2017-05-19T07:57:29.097Z,1009.7
2017-05-19T07:58:32.572Z,1009.7
2017-05-19T07:59:35.282Z,1009.7
2017-05-19T08:00:38.134Z,1009.7
2017-05-19T08:01:41.350Z,1009.7
2017-05-19T08:02:44.569Z,1009.7
2017-05-19T08:03:47.673Z,1009.7
2017-05-19T08:04:50.579Z,1009.7
2017-05-19T08:05:53.430Z,1009.6
2017-05-19T08:06:56.278Z,1009.7
2017-05-19T08:07:59.492Z,1009.7
2017-05-19T08:10:05.929Z,1009.6
2017-05-19T08:11:08.782Z,1009.6
2017-05-19T08:12:11.493Z,1009.6
2017-05-19T08:13:14.470Z,1009.6
2017-05-19T08:14:17.694Z,1009.6
2017-05-19T08:15:20.796Z,1009.6
2017-05-19T08:16:23.638Z,1009.6
2017-05-19T08:17:26.486Z,1009.6
2017-05-19T08:18:29.701Z,1009.5
2017-05-19T08:19:32.915Z,1009.5
2017-05-19T08:20:36.259Z,1009.5
2017-05-19T08:21:38.644Z,1009.5
2017-05-19T08:22:42.052Z,1009.5
2017-05-19T08:23:44.905Z,1009.5
2017-05-19T08:24:48.123Z,1009.5
2017-05-19T08:25:51.276Z,1009.5
2017-05-19T08:26:54.124Z,1009.4
2017-05-19T08:27:56.837Z,1009.5
2017-05-19T08:29:00.188Z,1009.4
2017-05-19T08:30:03.103Z,1009.4
2017-05-19T08:31:06.487Z,1009.4
2017-05-19T08:32:09.394Z,1009.4
2017-05-19T08:33:12.344Z,1009.4
2017-05-19T08:34:15.063Z,1009.4
2017-05-19T08:35:18.520Z,1009.4
2017-05-19T08:36:21.659Z,1009.4
2017-05-19T08:37:24.504Z,1009.3
2017-05-19T08:38:27.352Z,1009.4
2017-05-19T08:41:36.792Z,1009.4
2017-05-19T08:43:42.555Z,1009.4
2017-05-19T08:44:45.902Z,1009.4
2017-05-19T08:45:48.615Z,1009.3
2017-05-19T08:46:52.286Z,1009.4
2017-05-19T08:47:55.131Z,1009.4
2017-05-19T08:48:57.843Z,1009.3
2017-05-19T08:50:01.194Z,1009.4
2017-05-19T08:51:04.038Z,1009.4
2017-05-19T08:52:07.188Z,1009.3
2017-05-19T08:53:10.406Z,1009.3
2017-05-19T08:54:13.117Z,1009.3
2017-05-19T08:55:16.195Z,1009.3
2017-05-19T08:56:19.543Z,1009.3
2017-05-19T08:57:22.693Z,1009.3
2017-05-19T08:58:25.452Z,1009.2
2017-05-19T08:59:28.530Z,1009.3
2017-05-19T09:00:31.378Z,1009.2
2017-05-19T09:01:34.725Z,1009.3
2017-05-19T09:02:37.820Z,1009.3
2017-05-19T09:03:40.662Z,1009.2
2017-05-19T09:04:44.017Z,1009.2
2017-05-19T09:05:46.867Z,1009.2
2017-05-19T09:06:50.080Z,1009.2
2017-05-19T09:07:53.044Z,1009.2
2017-05-19T09:08:55.892Z,1009.2
2017-05-19T09:09:59.115Z,1009.2
2017-05-19T09:11:01.967Z,1009.2
2017-05-19T09:12:05.180Z,1009.2
2017-05-19T09:13:08.702Z,1009.2
2017-05-19T09:14:11.550Z,1009.1
2017-05-19T09:15:14.396Z,1009.2
2017-05-19T09:16:17.479Z,1009.1
2017-05-19T09:17:20.693Z,1009.1
2017-05-19T09:18:23.798Z,1009.1
2017-05-19T09:19:26.648Z,1009.1
2017-05-19T09:20:29.938Z,1009.1
2017-05-19T09:21:32.658Z,1009
2017-05-19T09:22:35.738Z,1009.1
2017-05-19T09:23:39.252Z,1009
2017-05-19T09:24:42.100Z,1009.1
2017-05-19T09:25:44.947Z,1009.1
2017-05-19T09:26:48.300Z,1009.1
2017-05-19T09:27:51.146Z,1009.1
2017-05-19T09:28:54.243Z,1009
2017-05-19T09:29:57.092Z,1009
2017-05-19T09:31:00.444Z,1009
2017-05-19T09:32:03.335Z,1008.9
2017-05-19T09:33:06.684Z,1009
2017-05-19T09:34:09.834Z,1009
2017-05-19T09:35:12.678Z,1009
2017-05-19T09:36:15.526Z,1008.9
2017-05-19T09:37:18.736Z,1008.9
2017-05-19T09:38:21.580Z,1008.9
2017-05-19T09:39:25.230Z,1008.9
2017-05-19T09:40:27.944Z,1008.9
2017-05-19T09:41:31.158Z,1008.9
2017-05-19T09:43:36.919Z,1008.9
2017-05-19T09:44:40.573Z,1008.8
2017-05-19T09:45:43.426Z,1008.8
2017-05-19T09:46:46.276Z,1008.8
2017-05-19T09:47:49.622Z,1008.8
2017-05-19T09:48:52.338Z,1008.8
2017-05-19T09:49:55.998Z,1008.8
2017-05-19T09:50:58.707Z,1008.9
2017-05-19T09:52:01.563Z,1008.8
2017-05-19T09:53:04.643Z,1008.8
2017-05-19T09:54:07.858Z,1008.8
2017-05-19T09:55:11.008Z,1008.9
2017-05-19T09:56:13.924Z,1008.8
2017-05-19T09:57:16.938Z,1008.8
2017-05-19T09:58:20.294Z,1008.8
2017-05-19T09:59:23.044Z,1008.7
2017-05-19T10:00:26.652Z,1008.8
2017-05-19T10:01:29.571Z,1008.8
2017-05-19T10:02:32.417Z,1008.8
2017-05-19T10:03:35.628Z,1008.8
2017-05-19T10:04:38.848Z,1008.8
2017-05-19T10:05:41.943Z,1008.8
2017-05-19T10:06:44.792Z,1008.8
2017-05-19T10:07:47.637Z,1008.8
2017-05-19T10:08:50.989Z,1008.8
2017-05-19T10:09:53.836Z,1008.7
2017-05-19T10:10:57.490Z,1008.8
2017-05-19T10:12:00.338Z,1008.8
2017-05-19T10:13:03.183Z,1008.7
2017-05-19T10:14:06.028Z,1008.7
2017-05-19T10:15:09.377Z,1008.7
2017-05-19T10:16:12.525Z,1008.7
2017-05-19T10:17:15.608Z,1008.7
2017-05-19T10:18:18.456Z,1008.7
2017-05-19T10:19:21.735Z,1008.7
2017-05-19T10:20:24.823Z,1008.7
2017-05-19T10:21:27.970Z,1008.7
2017-05-19T10:22:30.613Z,1008.7
2017-05-19T10:23:33.828Z,1008.7
2017-05-19T10:24:36.672Z,1008.6
2017-05-19T10:25:40.084Z,1008.7
2017-05-19T10:26:43.183Z,1008.7
2017-05-19T10:27:46.089Z,1008.7
2017-05-19T10:28:48.938Z,1008.7
2017-05-19T10:29:52.285Z,1008.7
2017-05-19T10:30:55.130Z,1008.7
2017-05-19T10:31:58.230Z,1008.6
2017-05-19T10:33:01.492Z,1008.6
2017-05-19T10:34:04.337Z,1008.6
2017-05-19T10:35:07.187Z,1008.6
2017-05-19T10:36:10.270Z,1008.6
2017-05-19T10:37:13.877Z,1008.6
2017-05-19T10:38:16.498Z,1008.5
2017-05-19T10:39:19.344Z,1008.5
2017-05-19T10:40:22.562Z,1008.5
2017-05-19T10:41:25.408Z,1008.5
2017-05-19T10:42:28.876Z,1008.5
2017-05-19T10:43:31.587Z,1008.5
2017-05-19T10:44:34.799Z,1008.5
2017-05-19T10:45:37.880Z,1008.5
2017-05-19T10:48:47.096Z,1008.5
2017-05-19T10:49:50.005Z,1008.5
2017-05-19T10:50:52.723Z,1008.5
2017-05-19T10:51:56.072Z,1008.5
2017-05-19T10:52:58.921Z,1008.4
2017-05-19T10:54:02.571Z,1008.5
2017-05-19T10:55:05.280Z,1008.5
2017-05-19T10:56:07.999Z,1008.5
2017-05-19T10:57:11.350Z,1008.5
2017-05-19T10:58:14.066Z,1008.4
2017-05-19T10:59:17.449Z,1008.5
2017-05-19T11:00:20.355Z,1008.4
2017-05-19T11:01:23.108Z,1008.4
2017-05-19T11:02:26.321Z,1008.5
2017-05-19T11:03:29.164Z,1008.4
2017-05-19T11:04:32.633Z,1008.4
2017-05-19T11:05:35.214Z,1008.4
2017-05-19T11:06:38.622Z,1008.4
2017-05-19T11:07:41.463Z,1008.3
2017-05-19T11:08:44.609Z,1008.3
2017-05-19T11:09:47.719Z,1008.2
2017-05-19T11:10:50.803Z,1008.2
2017-05-19T11:11:53.514Z,1008.2
2017-05-19T11:12:56.596Z,1008.3
2017-05-19T11:13:59.882Z,1008.3
2017-05-19T11:15:02.979Z,1008.3
2017-05-19T11:16:05.828Z,1008.3
2017-05-19T11:17:08.907Z,1008.3
2017-05-19T11:18:11.621Z,1008.2
2017-05-19T11:19:14.832Z,1008.2
2017-05-19T11:20:18.028Z,1008.2
2017-05-19T11:21:20.750Z,1008.2
2017-05-19T11:22:24.098Z,1008.3
2017-05-19T11:23:26.945Z,1008.2
2017-05-19T11:24:29.791Z,1008.2
2017-05-19T11:25:33.447Z,1008.3
2017-05-19T11:26:36.295Z,1008.3
2017-05-19T11:27:39.248Z,1008.2
2017-05-19T11:28:41.960Z,1008.2
2017-05-19T11:29:45.318Z,1008.2
2017-05-19T11:30:48.280Z,1008.2
2017-05-19T11:31:51.125Z,1008.1
2017-05-19T11:32:54.342Z,1008.1
2017-05-19T11:33:57.189Z,1008.2
2017-05-19T11:35:00.541Z,1008.1
2017-05-19T11:36:03.640Z,1008.1
2017-05-19T11:37:06.490Z,1008.1
2017-05-19T11:38:09.340Z,1008.1
2017-05-19T11:39:12.554Z,1008.1
2017-05-19T11:40:15.422Z,1008.1
2017-05-19T11:41:18.943Z,1008.1
2017-05-19T11:42:21.659Z,1008.1
2017-05-19T11:43:24.373Z,1008.1
2017-05-19T11:44:27.724Z,1008.1
2017-05-19T11:45:30.443Z,1008
2017-05-19T11:46:33.773Z,1008
2017-05-19T11:47:36.482Z,1008
2017-05-19T11:48:39.833Z,1008
2017-05-19T11:49:42.544Z,1008
2017-05-19T11:50:45.627Z,1007.9
2017-05-19T11:51:49.230Z,1007.9
2017-05-19T11:52:51.579Z,1007.9
2017-05-19T11:53:54.986Z,1007.9
2017-05-19T11:56:00.618Z,1007.9
2017-05-19T11:57:04.222Z,1007.8
2017-05-19T11:58:07.068Z,1007.8
2017-05-19T11:59:09.784Z,1007.8
2017-05-19T12:00:13.136Z,1007.8
2017-05-19T12:01:15.983Z,1007.8
2017-05-19T12:02:19.010Z,1007.8
2017-05-19T12:04:25.140Z,1007.9
2017-05-19T12:05:27.859Z,1007.9
2017-05-19T12:06:31.210Z,1007.8
2017-05-19T12:07:34.310Z,1007.8
2017-05-19T12:08:37.020Z,1007.9
2017-05-19T12:09:40.241Z,1007.9
2017-05-19T12:10:43.465Z,1007.9
2017-05-19T12:11:46.313Z,1007.9
2017-05-19T12:12:49.413Z,1007.9
2017-05-19T12:13:52.191Z,1007.9
2017-05-19T12:14:55.538Z,1007.9
2017-05-19T12:15:58.256Z,1007.9
2017-05-19T12:17:01.605Z,1007.9
2017-05-19T12:18:04.700Z,1007.8
2017-05-19T12:19:07.549Z,1007.8
2017-05-19T12:20:10.763Z,1007.8
2017-05-19T12:21:13.458Z,1007.8
2017-05-19T12:22:16.679Z,1007.8
2017-05-19T12:23:19.793Z,1007.8
2017-05-19T12:24:22.955Z,1007.7
2017-05-19T12:25:25.798Z,1007.7
2017-05-19T12:26:28.637Z,1007.6
2017-05-19T12:27:31.985Z,1007.7
2017-05-19T12:28:35.237Z,1007.7
2017-05-19T12:29:38.092Z,1007.7
2017-05-19T12:30:40.937Z,1007.7
2017-05-19T12:31:43.784Z,1007.6
2017-05-19T12:32:47.136Z,1007.7
2017-05-19T12:33:50.146Z,1007.8
2017-05-19T12:34:52.865Z,1007.7
2017-05-19T12:35:56.217Z,1007.7
2017-05-19T12:36:59.065Z,1007.6
2017-05-19T12:38:02.416Z,1007.6
2017-05-19T12:39:05.429Z,1007.6
2017-05-19T12:40:08.273Z,1007.6
2017-05-19T12:41:11.487Z,1007.6
2017-05-19T12:42:14.403Z,1007.6
2017-05-19T12:43:17.259Z,1007.6
2017-05-19T12:44:20.868Z,1007.5
2017-05-19T12:45:23.714Z,1007.5
2017-05-19T12:46:26.558Z,1007.5
2017-05-19T12:47:29.404Z,1007.5
2017-05-19T12:48:32.754Z,1007.5
2017-05-19T12:49:35.905Z,1007.5
2017-05-19T12:50:38.614Z,1007.5
2017-05-19T12:51:41.829Z,1007.5
2017-05-19T12:52:44.673Z,1007.5
2017-05-19T12:53:47.755Z,1007.5
2017-05-19T12:54:51.364Z,1007.5
2017-05-19T12:55:53.941Z,1007.5
2017-05-19T12:56:57.153Z,1007.5
2017-05-19T12:58:00.001Z,1007.5
2017-05-19T12:59:02.845Z,1007.5
2017-05-19T13:00:06.363Z,1007.5
2017-05-19T13:01:09.222Z,1007.5
2017-05-19T13:02:12.081Z,1007.4
2017-05-19T13:03:15.490Z,1007.4
2017-05-19T13:04:18.197Z,1007.4
2017-05-19T13:05:21.666Z,1007.4
2017-05-19T13:06:24.518Z,1007.4
2017-05-19T13:07:27.421Z,1007.4
2017-05-19T13:08:30.637Z,1007.4
2017-05-19T13:09:33.485Z,1007.4
2017-05-19T13:10:36.651Z,1007.4
2017-05-19T13:11:39.499Z,1007.4
2017-05-19T13:12:42.717Z,1007.4
2017-05-19T13:13:45.945Z,1007.4
2017-05-19T13:14:48.663Z,1007.4
2017-05-19T13:15:51.861Z,1007.4
2017-05-19T13:16:54.714Z,1007.4
2017-05-19T13:17:58.065Z,1007.3
2017-05-19T13:19:00.909Z,1007.3
2017-05-19T13:20:04.196Z,1007.3
2017-05-19T13:21:07.298Z,1007.4
2017-05-19T13:23:13.294Z,1007.2
2017-05-19T13:24:16.162Z,1007.3
2017-05-19T13:25:19.020Z,1007.3
2017-05-19T13:26:22.384Z,1007.2
2017-05-19T13:27:25.092Z,1007.3
2017-05-19T13:28:28.442Z,1007.3
2017-05-19T13:29:31.658Z,1007.2
2017-05-19T13:30:34.271Z,1007.2
2017-05-19T13:31:37.666Z,1007.2
2017-05-19T13:32:40.375Z,1007.2
2017-05-19T13:33:43.780Z,1007.1